createdAt,value
2024-01-24T00:02:05.016Z,48.92
2024-01-24T00:05:29.526Z,49.83
2024-01-24T00:08:52.291Z,41.10
2024-01-24T00:12:18.034Z,46.92
2024-01-24T00:15:42.874Z,51.22
2024-01-24T00:19:07.056Z,42.27
2024-01-24T00:22:36.133Z,51.53
2024-01-24T00:25:59.076Z,56.28
2024-01-24T00:29:21.679Z,45.60
2024-01-24T00:32:44.252Z,49.00
2024-01-24T00:36:11.547Z,56.55
2024-01-24T00:39:34.648Z,58.50
2024-01-24T00:42:57.085Z,52.43
2024-01-24T00:46:19.652Z,50.75
2024-01-24T00:49:42.457Z,60.05
2024-01-24T00:53:11.504Z,58.65
2024-01-24T00:56:36.739Z,63.03
2024-01-24T01:00:07.530Z,54.95
2024-01-24T01:03:30.297Z,58.05
2024-01-24T01:06:54.975Z,64.28
2024-01-24T01:10:22.132Z,65.57
2024-01-24T01:13:44.972Z,60.47
2024-01-24T01:17:07.850Z,63.03
2024-01-24T01:20:30.288Z,69.10
2024-01-24T01:23:52.884Z,65.35
2024-01-24T01:27:19.556Z,59.20
2024-01-24T01:30:41.923Z,57.10
2024-01-24T01:34:05.495Z,54.17
2024-01-24T01:37:31.884Z,60.05
2024-01-24T01:40:55.043Z,55.53
2024-01-24T01:44:19.090Z,52.13
2024-01-24T01:47:42.161Z,61.50
2024-01-24T01:51:04.848Z,43.60
2024-01-24T01:54:30.523Z,43.67
2024-01-24T01:57:53.057Z,54.53
2024-01-24T02:01:17.918Z,44.70
2024-01-24T02:04:41.387Z,47.58
2024-01-24T02:08:04.192Z,40.33
2024-01-24T02:11:26.746Z,45.65
2024-01-24T02:14:52.176Z,38.57
2024-01-24T02:18:16.318Z,46.75
2024-01-24T02:21:39.449Z,49.78
2024-01-24T02:25:03.660Z,48.08
2024-01-24T02:28:26.377Z,41.03
2024-01-24T02:31:48.945Z,42.08
2024-01-24T02:35:11.408Z,40.63
2024-01-24T02:38:34.333Z,44.65
2024-01-24T02:41:58.192Z,40.17
2024-01-24T02:45:23.710Z,44.80
2024-01-24T02:48:46.635Z,51.85
2024-01-24T02:52:09.231Z,47.55
2024-01-24T02:55:34.459Z,47.75
2024-01-24T02:58:58.340Z,43.45
2024-01-24T03:02:20.934Z,48.35
2024-01-24T03:05:43.939Z,45.57
2024-01-24T03:09:06.825Z,40.67
2024-01-24T03:12:29.451Z,35.38
2024-01-24T03:15:53.725Z,40.22
2024-01-24T03:19:16.688Z,37.33
2024-01-24T03:22:39.793Z,43.60
2024-01-24T03:26:02.196Z,44.67
2024-01-24T03:29:24.891Z,39.40
2024-01-24T03:32:48.949Z,37.53
2024-01-24T03:36:12.061Z,37.60
2024-01-24T03:39:37.394Z,43.97
2024-01-24T03:43:02.537Z,32.17
2024-01-24T03:46:25.276Z,43.40
2024-01-24T03:49:50.856Z,33.72
2024-01-24T03:53:13.471Z,32.95
2024-01-24T03:56:36.320Z,33.30
2024-01-24T04:00:01.783Z,32.47
2024-01-24T04:03:34.751Z,37.47
2024-01-24T04:06:59.333Z,36.05
2024-01-24T04:10:21.741Z,35.10
2024-01-24T04:13:47.020Z,33.08
2024-01-24T04:17:09.852Z,37.83
2024-01-24T04:20:32.513Z,36.22
2024-01-24T04:23:56.515Z,33.30
2024-01-24T04:27:22.287Z,34.97
2024-01-24T04:30:45.156Z,32.53
2024-01-24T04:34:13.477Z,36.28
2024-01-24T04:37:35.982Z,33.13
2024-01-24T04:41:06.538Z,36.80
2024-01-24T04:44:29.367Z,33.58
2024-01-24T04:47:55.243Z,36.53
2024-01-24T04:51:20.870Z,35.97
2024-01-24T04:54:44.308Z,33.55
2024-01-24T04:58:08.481Z,33.42
2024-01-24T05:01:32.435Z,29.97
2024-01-24T05:04:54.827Z,31.30
2024-01-24T05:08:17.491Z,27.92
2024-01-24T05:11:43.192Z,30.60
2024-01-24T05:15:09.798Z,28.73
2024-01-24T05:18:32.881Z,27.02
2024-01-24T05:21:56.015Z,27.83
2024-01-24T05:25:18.790Z,24.63
2024-01-24T05:28:42.382Z,25.08
2024-01-24T05:32:07.147Z,22.65
2024-01-24T05:35:31.803Z,18.45
2024-01-24T05:38:56.058Z,17.77
2024-01-24T05:42:19.115Z,13.70
2024-01-24T05:45:42.137Z,15.02
2024-01-24T05:49:06.527Z,16.17
2024-01-24T05:52:32.020Z,20.27
2024-01-24T05:55:54.841Z,16.70
2024-01-24T05:59:17.475Z,17.67
2024-01-24T06:02:40.182Z,17.43
2024-01-24T06:06:04.412Z,17.33
2024-01-24T06:09:30.245Z,18.40
2024-01-24T06:12:52.942Z,20.77
2024-01-24T06:16:15.461Z,23.10
2024-01-24T06:19:38.305Z,20.30
2024-01-24T06:23:02.415Z,22.85
2024-01-24T06:26:25.249Z,24.30
2024-01-24T06:30:17.263Z,21.67
2024-01-24T06:33:33.659Z,25.45
2024-01-24T06:36:58.759Z,24.98
2024-01-24T06:40:23.398Z,23.67
2024-01-24T06:43:45.831Z,52.72
2024-01-24T06:47:08.804Z,35.92
2024-01-24T06:50:34.742Z,31.33
2024-01-24T06:53:57.363Z,24.40
2024-01-24T06:57:21.533Z,27.50
2024-01-24T07:00:47.839Z,24.05
2024-01-24T07:04:11.319Z,30.73
2024-01-24T07:07:34.455Z,26.60
2024-01-24T07:10:57.109Z,23.67
2024-01-24T07:14:20.935Z,27.52
2024-01-24T07:17:43.642Z,19.60
2024-01-24T07:21:07.970Z,24.80
2024-01-24T07:24:33.100Z,19.23
2024-01-24T07:27:55.910Z,24.08
2024-01-24T07:31:20.671Z,22.10
2024-01-24T07:34:48.455Z,19.70
2024-01-24T07:38:11.399Z,28.85
2024-01-24T07:41:34.135Z,21.87
2024-01-24T07:44:56.800Z,16.27
2024-01-24T07:48:21.515Z,13.15
2024-01-24T07:51:48.310Z,12.30
2024-01-24T07:55:17.991Z,11.68
2024-01-24T07:58:49.193Z,14.13
2024-01-24T08:02:12.445Z,9.90
2024-01-24T08:05:36.761Z,14.35
2024-01-24T08:09:05.065Z,15.30
2024-01-24T08:12:27.706Z,16.12
2024-01-24T08:15:50.468Z,15.05
2024-01-24T08:19:14.021Z,20.33
2024-01-24T08:22:38.348Z,22.17
2024-01-24T08:26:00.987Z,20.92
2024-01-24T08:29:36.084Z,15.48
2024-01-24T08:33:03.544Z,23.83
2024-01-24T08:36:39.586Z,22.50
2024-01-24T08:40:04.184Z,11.20
2024-01-24T08:43:26.456Z,10.52
2024-01-24T08:46:50.256Z,14.33
2024-01-24T08:50:15.921Z,29.98
2024-01-24T08:53:39.680Z,18.67
2024-01-24T08:57:05.093Z,12.93
2024-01-24T09:00:30.754Z,21.27
2024-01-24T09:03:54.649Z,31.17
2024-01-24T09:07:21.414Z,16.62
2024-01-24T09:10:44.092Z,12.60
2024-01-24T09:14:08.594Z,11.57
2024-01-24T09:17:31.408Z,12.70
2024-01-24T09:20:54.296Z,10.50
2024-01-24T09:24:16.949Z,10.65
2024-01-24T09:27:50.243Z,12.50
2024-01-24T09:31:14.440Z,7.80
2024-01-24T09:34:37.602Z,11.95
2024-01-24T09:38:03.415Z,15.85
2024-01-24T09:41:26.240Z,19.50
2024-01-24T09:44:49.553Z,13.20
2024-01-24T09:48:14.105Z,11.30
2024-01-24T09:51:36.860Z,15.70
2024-01-24T09:55:06.976Z,17.00
2024-01-24T09:58:34.060Z,26.87
2024-01-24T10:01:56.816Z,15.50
2024-01-24T10:05:22.544Z,15.68
2024-01-24T10:08:45.155Z,12.40
2024-01-24T10:12:09.648Z,12.88
2024-01-24T10:15:32.845Z,10.60
2024-01-24T10:18:58.853Z,14.43
2024-01-24T10:22:24.162Z,11.83
2024-01-24T10:25:46.891Z,8.18
2024-01-24T10:29:11.225Z,13.90
2024-01-24T10:32:36.118Z,9.93
2024-01-24T10:36:10.787Z,6.75
2024-01-24T10:39:42.138Z,8.35
2024-01-24T10:43:07.827Z,9.00
2024-01-24T10:46:30.665Z,6.80
2024-01-24T10:49:53.505Z,10.93
2024-01-24T10:53:16.906Z,6.90
2024-01-24T10:56:43.325Z,11.50
2024-01-24T11:00:12.914Z,9.15
2024-01-24T11:03:40.179Z,9.10
2024-01-24T11:07:07.286Z,7.93
2024-01-24T11:10:35.588Z,10.07
2024-01-24T11:14:02.948Z,13.00
2024-01-24T11:17:25.889Z,12.20
2024-01-24T11:20:49.175Z,12.23
2024-01-24T11:24:11.814Z,12.00
2024-01-24T11:27:36.254Z,9.95
2024-01-24T11:31:01.267Z,9.13
2024-01-24T11:34:24.659Z,9.48
2024-01-24T11:37:48.828Z,10.93
2024-01-24T11:41:25.743Z,9.32
2024-01-24T11:44:51.909Z,13.17
2024-01-24T11:48:16.272Z,11.95
2024-01-24T11:51:38.598Z,20.90
2024-01-24T11:55:01.784Z,21.02
2024-01-24T11:58:27.222Z,17.33
2024-01-24T12:01:51.252Z,20.62
2024-01-24T12:05:17.318Z,19.30
2024-01-24T12:08:42.571Z,14.80
2024-01-24T12:12:06.257Z,19.12
2024-01-24T12:15:31.670Z,25.70
2024-01-24T12:18:54.557Z,20.10
2024-01-24T12:22:19.268Z,23.00
2024-01-24T12:25:43.583Z,30.65
2024-01-24T12:29:08.524Z,47.08
2024-01-24T12:32:31.713Z,40.55
2024-01-24T12:35:55.158Z,22.03
2024-01-24T12:39:27.640Z,14.87
2024-01-24T12:42:51.096Z,16.08
2024-01-24T12:46:14.464Z,13.80
2024-01-24T12:49:40.551Z,16.03
2024-01-24T12:53:03.672Z,19.00
2024-01-24T12:56:28.243Z,12.07
2024-01-24T12:59:51.118Z,11.00
2024-01-24T13:03:15.806Z,11.27
2024-01-24T13:06:42.072Z,11.93
2024-01-24T13:10:07.185Z,13.20
2024-01-24T13:13:32.753Z,18.10
2024-01-24T13:17:08.090Z,14.57
2024-01-24T13:20:30.818Z,11.35
2024-01-24T13:23:53.826Z,13.25
2024-01-24T13:27:16.832Z,15.15
2024-01-24T13:30:45.130Z,18.20
2024-01-24T13:34:08.367Z,14.63
2024-01-24T13:37:39.743Z,12.77
2024-01-24T13:41:02.843Z,13.45
2024-01-24T13:44:25.273Z,12.70
2024-01-24T13:47:48.411Z,15.32
2024-01-24T13:51:12.048Z,10.35
2024-01-24T13:54:36.237Z,10.57
2024-01-24T13:58:01.564Z,14.00
2024-01-24T14:01:24.634Z,13.48
2024-01-24T14:04:47.919Z,14.43
2024-01-24T14:08:10.568Z,13.20
2024-01-24T14:11:35.906Z,16.30
2024-01-24T14:15:05.732Z,18.62
2024-01-24T14:18:34.788Z,18.33
2024-01-24T14:21:57.596Z,11.93
2024-01-24T14:25:21.183Z,18.85
2024-01-24T14:28:47.585Z,17.10
2024-01-24T14:32:13.058Z,14.98
2024-01-24T14:35:35.616Z,11.17
2024-01-24T14:38:59.920Z,21.83
2024-01-24T14:42:23.482Z,12.05
2024-01-24T14:45:48.132Z,35.15
2024-01-24T14:49:12.369Z,14.70
2024-01-24T14:52:38.420Z,15.48
2024-01-24T14:56:00.697Z,16.60
2024-01-24T14:59:26.585Z,11.98
2024-01-24T15:02:51.137Z,11.70
2024-01-24T15:06:13.985Z,18.92
2024-01-24T15:09:37.389Z,14.50
2024-01-24T15:13:00.255Z,16.37
2024-01-24T15:16:23.129Z,11.15
2024-01-24T15:19:49.783Z,16.23
2024-01-24T15:23:15.698Z,12.15
2024-01-24T15:26:38.426Z,14.97
2024-01-24T15:30:01.076Z,13.95
2024-01-24T15:33:23.824Z,23.08
2024-01-24T15:36:48.496Z,46.85
2024-01-24T15:40:15.885Z,44.47
2024-01-24T15:43:40.105Z,19.25
2024-01-24T15:47:07.220Z,57.28
2024-01-24T15:50:30.163Z,13.00
2024-01-24T15:53:54.704Z,42.57
2024-01-24T15:57:17.550Z,16.70
2024-01-24T16:00:43.540Z,13.57
2024-01-24T16:04:06.632Z,16.33
2024-01-24T16:07:31.918Z,14.47
2024-01-24T16:10:58.358Z,16.73
2024-01-24T16:14:23.316Z,16.95
2024-01-24T16:17:46.391Z,31.23
2024-01-24T16:21:08.951Z,26.03
2024-01-24T16:24:31.703Z,19.23
2024-01-24T16:27:56.019Z,23.52
2024-01-24T16:31:19.441Z,24.20
2024-01-24T16:34:42.001Z,25.27
2024-01-24T16:38:07.163Z,24.55
2024-01-24T16:41:29.461Z,27.10
2024-01-24T16:44:53.528Z,29.00
2024-01-24T16:48:15.906Z,35.53
2024-01-24T16:51:38.831Z,29.45
2024-01-24T16:55:01.727Z,20.80
2024-01-24T16:58:24.979Z,25.85
2024-01-24T17:01:51.180Z,23.30
2024-01-24T17:05:14.869Z,22.10
2024-01-24T17:08:40.276Z,23.60
2024-01-24T17:12:02.825Z,25.20
2024-01-24T17:15:25.513Z,29.75
2024-01-24T17:18:50.309Z,27.85
2024-01-24T17:22:15.832Z,22.20
2024-01-24T17:25:43.130Z,25.83
2024-01-24T17:29:05.923Z,28.40
2024-01-24T17:32:31.174Z,30.10
2024-01-24T17:35:55.549Z,39.53
2024-01-24T17:39:21.672Z,37.73
2024-01-24T17:42:44.544Z,44.25
2024-01-24T17:46:09.809Z,54.25
2024-01-24T17:49:33.043Z,60.58
2024-01-24T17:53:06.303Z,48.13
2024-01-24T17:56:29.528Z,36.80
2024-01-24T18:00:00.148Z,36.45
2024-01-24T18:03:26.380Z,30.50
2024-01-24T18:06:53.961Z,35.97
2024-01-24T18:10:21.732Z,38.22
2024-01-24T18:13:50.672Z,32.63
2024-01-24T18:17:18.623Z,31.75
2024-01-24T18:20:44.046Z,27.20
2024-01-24T18:24:13.358Z,29.60
2024-01-24T18:27:40.300Z,29.42
2024-01-24T18:31:05.858Z,28.62
2024-01-24T18:34:38.290Z,29.47
2024-01-24T18:38:05.863Z,29.42
2024-01-24T18:41:36.800Z,25.08
2024-01-24T18:45:08.474Z,23.45
2024-01-24T18:48:34.266Z,22.07
2024-01-24T18:52:02.583Z,36.17
2024-01-24T18:55:31.623Z,83.95
2024-01-24T18:58:57.828Z,100.78
2024-01-24T19:02:26.884Z,60.97
2024-01-24T19:05:52.600Z,215.50
2024-01-24T19:09:19.005Z,173.38
2024-01-24T19:12:45.557Z,59.67
2024-01-24T19:16:14.484Z,58.50
2024-01-24T19:19:44.601Z,51.92
2024-01-24T19:23:10.962Z,69.45
2024-01-24T19:26:37.569Z,65.65
2024-01-24T19:30:04.288Z,44.53
2024-01-24T19:33:30.318Z,31.33
2024-01-24T19:36:58.591Z,35.50
2024-01-24T19:40:24.730Z,26.27
2024-01-24T19:43:52.823Z,24.37
2024-01-24T19:47:18.824Z,15.10
2024-01-24T19:50:46.642Z,16.58
2024-01-24T19:54:15.484Z,22.48
2024-01-24T19:57:42.163Z,18.20
2024-01-24T20:01:10.642Z,16.73
2024-01-24T20:04:40.038Z,21.37
2024-01-24T20:08:07.524Z,17.80
2024-01-24T20:11:38.329Z,19.93
2024-01-24T20:15:04.486Z,18.62
2024-01-24T20:18:30.489Z,16.92
2024-01-24T20:21:55.982Z,18.98
2024-01-24T20:25:27.494Z,19.33
2024-01-24T20:28:54.633Z,18.05
2024-01-24T20:32:20.922Z,16.25
2024-01-24T20:35:46.423Z,17.30
2024-01-24T20:39:13.036Z,18.17
2024-01-24T20:42:38.170Z,18.02
2024-01-24T20:46:05.732Z,19.02
2024-01-24T20:49:30.996Z,22.65
2024-01-24T20:52:56.588Z,18.63
2024-01-24T20:56:24.516Z,16.45
2024-01-24T20:59:50.899Z,18.55
2024-01-24T21:03:20.981Z,17.25
2024-01-24T21:06:49.474Z,15.98
2024-01-24T21:10:17.872Z,19.30
2024-01-24T21:13:42.437Z,21.85
2024-01-24T21:17:08.918Z,17.77
2024-01-24T21:20:34.108Z,16.20
2024-01-24T21:24:02.856Z,12.85
2024-01-24T21:27:32.594Z,17.55
2024-01-24T21:30:56.117Z,18.17
2024-01-24T21:34:19.393Z,14.85
2024-01-24T21:37:43.351Z,17.30
2024-01-24T21:41:07.756Z,14.77
2024-01-24T21:44:30.186Z,13.68
2024-01-24T21:47:52.890Z,16.03
2024-01-24T21:51:15.688Z,12.43
2024-01-24T21:54:41.031Z,15.73
2024-01-24T21:58:05.940Z,14.32
2024-01-24T22:01:34.211Z,15.17
2024-01-24T22:04:56.802Z,13.77
2024-01-24T22:08:21.091Z,14.77
2024-01-24T22:11:45.094Z,17.67
2024-01-24T22:15:09.364Z,16.03
2024-01-24T22:18:40.934Z,15.73
2024-01-24T22:22:09.988Z,13.77
2024-01-24T22:25:32.874Z,15.90
2024-01-24T22:28:56.890Z,19.03
2024-01-24T22:32:19.756Z,15.93
2024-01-24T22:35:43.329Z,14.15
2024-01-24T22:39:08.393Z,16.65
2024-01-24T22:42:31.194Z,17.50
2024-01-24T22:45:55.509Z,19.12
2024-01-24T22:49:19.148Z,21.02
2024-01-24T22:52:42.471Z,20.92
2024-01-24T22:56:05.589Z,28.73
2024-01-24T22:59:28.805Z,27.45
2024-01-24T23:02:53.039Z,28.10
2024-01-24T23:06:15.973Z,27.77
2024-01-24T23:09:38.778Z,27.00
2024-01-24T23:13:03.720Z,21.20
2024-01-24T23:16:25.997Z,17.62
2024-01-24T23:19:53.655Z,20.35
2024-01-24T23:23:16.036Z,13.47
2024-01-24T23:26:43.482Z,16.55
2024-01-24T23:30:12.603Z,12.70
2024-01-24T23:33:36.113Z,9.82
2024-01-24T23:37:00.505Z,10.30
2024-01-24T23:40:25.715Z,10.65
2024-01-24T23:43:48.317Z,10.70
2024-01-24T23:47:10.980Z,6.87
2024-01-24T23:50:33.992Z,5.33
2024-01-24T23:54:00.656Z,7.25
2024-01-24T23:57:27.362Z,7.43
